Impacts METAR Board
IDs:

KCLT - Charlotte/Douglas In, NC, US

Updated at: 1600 UTC 22 Sep 2019
Potential Impact None Slight Moderate High
Time 22/04Z 22/05Z 22/06Z 22/07Z 22/08Z 22/09Z 22/10Z 22/11Z 22/12Z 22/13Z 22/14Z 22/15Z 22/16Z
Temp71 68 67 67 65 64 63 62 65 69 74 78 82
Dewpt61 60 59 58 57 57 57 57 58 60 61 61 61
Altim30.25 30.26 30.25 30.23 30.23 30.23 30.23 30.23 30.24 30.25 30.25 30.25 30.24
VIS10 10 10 10 10 10 10 10 10 10 10 10 10
CIG-- -- -- -- -- -- -- -- -- -- -- -- --
CoverCLRCLRCLRCLRCLRCLRCLRCLRCLRCLRCLRFEWFEW
FltCatVFRVFRVFRVFRVFRVFRVFRVFRVFRVFRVFRVFRVFR
WX--------------------------
WDir017000017000022023000
WSpd0 3 0 0 0 3 0 0 0 3 3 3 5
WGst-- -- -- -- -- -- -- -- -- -- -- -- --
Raw hourly METARs
KCLT 220352Z 00000KT 10SM CLR 22/16 A3025 RMK AO2 SLP236 T02170161
KCLT 220452Z 17003KT 10SM CLR 20/16 A3026 RMK AO2 SLP237 T02000156 403060139
KCLT 220552Z 00000KT 10SM CLR 19/15 A3025 RMK AO2 SLP234 T01940150 10261 20189 58001
KCLT 220652Z 00000KT 10SM CLR 19/14 A3023 RMK AO2 SLP230 T01940144
KCLT 220752Z 00000KT 10SM CLR 18/14 A3023 RMK AO2 SLP227 T01830139
KCLT 220852Z 17003KT 10SM CLR 18/14 A3023 RMK AO2 SLP227 T01780139 56006
KCLT 220952Z 00000KT 10SM CLR 17/14 A3023 RMK AO2 SLP228 T01720139
KCLT 221052Z 00000KT 10SM CLR 17/14 A3023 RMK AO2 SLP231 T01670139
KCLT 221152Z 00000KT 10SM CLR 18/14 A3024 RMK AO2 SLP233 T01830144 10194 20161 53005
KCLT 221252Z 22003KT 10SM CLR 21/16 A3025 RMK AO2 SLP237 T02060156
KCLT 221352Z 23003KT 10SM CLR 23/16 A3025 RMK AO2 SLP237 T02330161
KCLT 221452Z VRB03KT 10SM FEW250 26/16 A3025 RMK AO2 SLP236 T02560161 50004
KCLT 221552Z VRB05KT 10SM FEW250 28/16 A3024 RMK AO2 SLP230 T02780161



Page loaded:  16:06 UTC  |   09:06 AM Pacific  |   10:06 AM Mountain  |   11:06 AM Central  |   12:06 PM Eastern

 

ADVISORIES

FORECASTS

FORECASTS

OBSERVATIONS

USER TOOLS

ABOUT US